Terminal Aerodrome Forecast
Issued by NWS

Home | Current Version | Previous Version | Graphics & Text | Print | Product List | Glossary On
Versions: 1 2 3 4 5 6 7 8 9 10 11 12 13 14 15 16
000
FTUS43 KICT 311925 AAA
TAFHUT
TAF AMD
KHUT 311925Z 3119/0118 09005KT P6SM SCT020 BKN035
     FM312200 14011KT P6SM SCT025 BKN035
     FM010800 11006KT 4SM BR SCT006 BKN012
     FM011500 15012KT P6SM SCT015 BKN035=

USA.gov is the U.S. government's official web portal to all federal, state and local government web resources and services.